Time;durP1;ratioP1;P1;durP2;ratioP2;P2;SDS_P1;SDS_P2;PMS_P1;PMS_P2;Temp;Humidity;BMP_temperature;BMP_pressure;BME280_temperature;BME280_humidity;BME280_pressure;Samples;Min_cycle;Max_cycle;Signal;HPM_P1;HPM_P2
2022/06/27 00:00:20;;;;;;;3.25;3.15;;;;;;;22.20;60.70;100702.50;1654169;83;21167;-69
2022/06/27 00:02:48;;;;;;;3.05;2.95;;;;;;;22.14;61.23;100708.95;1719365;83;21561;-68
2022/06/27 00:05:14;;;;;;;3.72;3.40;;;;;;;22.13;61.32;100712.73;1703223;82;21586;-69
2022/06/27 00:07:41;;;;;;;5.67;3.37;;;;;;;22.13;61.66;100708.66;1711523;82;21155;-70
2022/06/27 00:10:09;;;;;;;3.60;3.27;;;;;;;22.19;61.54;100706.30;1719210;82;21622;-69
2022/06/27 00:12:38;;;;;;;3.05;2.85;;;;;;;22.18;61.39;100707.36;1715689;82;21336;-69
2022/06/27 00:15:10;;;;;;;3.62;3.35;;;;;;;22.10;61.85;100709.20;1705694;83;21058;-76
2022/06/27 00:17:39;;;;;;;3.90;3.52;;;;;;;22.07;62.04;100709.15;1702223;83;21082;-70
2022/06/27 00:20:07;;;;;;;3.58;3.37;;;;;;;22.04;62.36;100707.48;1717021;82;21156;-73
2022/06/27 00:22:36;;;;;;;4.92;3.22;;;;;;;22.01;62.84;100708.02;1709848;82;21071;-69
2022/06/27 00:25:03;;;;;;;3.00;2.80;;;;;;;21.93;63.16;100706.58;1683942;83;21538;-69
2022/06/27 00:27:29;;;;;;;3.17;2.58;;;;;;;21.90;63.49;100703.81;1685851;83;21533;-68
2022/06/27 00:29:55;;;;;;;3.37;3.10;;;;;;;21.98;63.48;100702.53;1681156;83;20979;-70
2022/06/27 00:32:23;;;;;;;2.92;2.72;;;;;;;21.95;63.79;100706.59;1678331;84;21049;-68
2022/06/27 00:34:50;;;;;;;3.77;3.27;;;;;;;21.92;63.98;100715.23;1688492;83;21129;-69
2022/06/27 00:37:16;;;;;;;3.17;3.08;;;;;;;21.89;64.31;100713.05;1696007;83;21419;-68
2022/06/27 00:39:43;;;;;;;3.40;3.20;;;;;;;21.93;64.52;100708.74;1692479;83;21059;-68
2022/06/27 00:42:10;;;;;;;2.67;2.58;;;;;;;21.93;64.51;100713.36;1702975;84;21903;-69
2022/06/27 00:44:42;;;;;;;3.60;3.02;;;;;;;21.77;65.05;100716.42;1693048;83;21046;-68
2022/06/27 00:47:12;;;;;;;3.70;3.42;;;;;;;21.64;65.62;100710.03;1682176;83;21034;-70
2022/06/27 00:49:40;;;;;;;4.83;2.83;;;;;;;21.48;66.58;100716.62;1686090;83;21049;-68
2022/06/27 00:52:10;;;;;;;3.55;2.92;;;;;;;21.37;67.35;100714.82;1692253;83;21066;-70
2022/06/27 00:54:39;;;;;;;2.55;2.45;;;;;;;21.33;67.45;100715.85;1682715;83;21858;-68
2022/06/27 00:57:06;;;;;;;3.08;2.87;;;;;;;21.33;67.75;100714.50;1711154;82;21604;-68
2022/06/27 00:59:35;;;;;;;3.45;3.35;;;;;;;21.32;67.78;100712.03;1714587;83;21144;-70
2022/06/27 01:02:01;;;;;;;3.25;3.10;;;;;;;21.26;68.01;100718.47;1675268;82;21129;-69
2022/06/27 01:04:29;;;;;;;3.02;2.70;;;;;;;21.22;68.21;100718.14;1670801;84;21124;-68
2022/06/27 01:06:57;;;;;;;3.27;3.02;;;;;;;21.14;67.96;100722.64;1683322;84;21089;-68
2022/06/27 01:09:25;;;;;;;2.72;2.62;;;;;;;20.93;69.57;100720.17;1663045;84;21112;-70
2022/06/27 01:11:53;;;;;;;2.92;2.72;;;;;;;20.89;70.02;100723.91;1682438;83;21031;-70
2022/06/27 01:14:20;;;;;;;3.22;3.02;;;;;;;20.94;70.37;100723.16;1698942;83;21063;-69
2022/06/27 01:16:47;;;;;;;3.50;3.30;;;;;;;21.09;69.51;100730.16;1705770;83;21201;-67
2022/06/27 01:19:16;;;;;;;3.75;3.47;;;;;;;21.16;69.24;100727.28;1709741;83;21063;-69
2022/06/27 01:21:50;;;;;;;3.17;3.05;;;;;;;21.17;69.07;100728.39;1706065;83;21525;-68
2022/06/27 01:24:18;;;;;;;2.72;2.52;;;;;;;21.20;68.89;100725.16;1709208;81;21361;-68
2022/06/27 01:26:46;;;;;;;2.77;2.58;;;;;;;21.22;68.91;100725.46;1705631;81;21047;-68
2022/06/27 01:29:14;;;;;;;2.98;2.87;;;;;;;21.13;68.93;100728.58;1724788;82;21062;-70
2022/06/27 01:31:42;;;;;;;2.37;2.27;;;;;;;20.96;69.82;100726.44;1715343;82;21533;-68
2022/06/27 01:34:11;;;;;;;2.92;2.67;;;;;;;20.89;70.09;100731.20;1723411;81;21515;-68
2022/06/27 01:36:42;;;;;;;4.37;2.62;;;;;;;20.75;71.10;100730.17;1716783;81;21491;-68
2022/06/27 01:39:20;;;;;;;3.00;2.80;;;;;;;20.81;71.11;100729.72;1728560;81;20980;-68
2022/06/27 01:41:50;;;;;;;6.92;5.72;;;;;;;20.86;71.03;100731.17;1721229;82;21079;-68
2022/06/27 01:44:18;;;;;;;3.90;3.60;;;;;;;20.92;70.76;100729.36;1707908;81;22184;-68
2022/06/27 01:46:55;;;;;;;12.60;11.63;;;;;;;20.96;70.23;100739.47;1689390;83;21030;-70
2022/06/27 01:49:23;;;;;;;8.53;7.92;;;;;;;20.80;70.72;100735.69;1650958;85;21069;-70
2022/06/27 01:51:51;;;;;;;;;;;;;;;20.59;71.35;100732.34;1659567;86;21743;-71
2022/06/27 01:54:20;;;;;;;5.83;5.45;;;;;;;20.47;72.58;100738.34;1658830;85;20198;-69
2022/06/27 01:56:51;;;;;;;7.10;6.58;;;;;;;20.35;72.97;100737.88;1658792;85;21179;-69
2022/06/27 01:59:22;;;;;;;7.70;7.00;;;;;;;20.23;73.67;100741.19;1656284;85;21041;-69
2022/06/27 02:01:49;;;;;;;7.70;6.83;;;;;;;20.16;74.23;100736.45;1634975;86;21065;-69
2022/06/27 02:04:16;;;;;;;6.40;4.58;;;;;;;20.10;74.64;100734.69;1580646;89;21049;-69
2022/06/27 02:06:45;;;;;;;4.50;4.17;;;;;;;20.07;74.28;100736.55;1589020;88;21239;-68
2022/06/27 02:09:14;;;;;;;4.67;4.25;;;;;;;19.96;74.90;100733.62;1617010;87;21705;-70
2022/06/27 02:11:46;;;;;;;7.58;7.08;;;;;;;19.93;75.62;100742.25;1655814;85;21103;-70
2022/06/27 02:14:15;;;;;;;7.95;7.35;;;;;;;19.95;76.28;100737.41;1645316;85;21021;-69
2022/06/27 02:16:43;;;;;;;6.33;5.72;;;;;;;20.16;76.05;100737.80;1656106;85;21033;-69
2022/06/27 02:19:14;;;;;;;7.08;6.58;;;;;;;20.36;75.01;100741.39;1652522;85;21107;-70
2022/06/27 02:21:41;;;;;;;4.78;4.37;;;;;;;20.53;74.32;100742.27;1652473;85;21129;-71
2022/06/27 02:24:09;;;;;;;7.78;7.10;;;;;;;20.72;73.34;100742.03;1636133;86;21049;-69
2022/06/27 02:26:37;;;;;;;6.80;6.40;;;;;;;20.91;72.29;100739.92;1657162;85;21004;-69
2022/06/27 02:29:05;;;;;;;7.12;6.62;;;;;;;21.18;71.14;100741.40;1669390;85;21042;-67
2022/06/27 02:31:34;;;;;;;6.80;6.25;;;;;;;21.38;70.17;100742.23;1677968;84;21062;-67
2022/06/27 02:34:01;;;;;;;5.05;4.75;;;;;;;21.47;69.40;100751.58;1673644;83;21066;-68
2022/06/27 02:36:36;;;;;;;5.53;5.22;;;;;;;21.56;68.99;100746.55;1696923;83;21110;-69
2022/06/27 02:39:03;;;;;;;4.00;3.72;;;;;;;21.70;68.70;100749.70;1666564;85;21110;-68
2022/06/27 02:41:39;;;;;;;3.90;3.60;;;;;;;21.72;68.31;100754.36;1699109;83;21066;-69
2022/06/27 02:44:10;;;;;;;4.00;3.62;;;;;;;21.59;68.75;100754.20;1701977;83;21061;-69
2022/06/27 02:46:38;;;;;;;3.98;3.60;;;;;;;21.39;69.35;100756.06;1670913;84;21009;-69
2022/06/27 02:49:08;;;;;;;3.10;3.00;;;;;;;21.30;70.04;100757.55;1665705;84;21053;-69
2022/06/27 02:51:45;;;;;;;4.00;3.70;;;;;;;21.36;70.45;100760.10;1666796;84;21040;-69
2022/06/27 02:54:26;;;;;;;3.65;3.52;;;;;;;21.69;69.62;100760.28;1668544;84;21634;-69
2022/06/27 02:57:12;;;;;;;3.10;3.00;;;;;;;22.15;67.84;100759.45;1673096;85;21022;-70
2022/06/27 02:59:42;;;;;;;3.85;3.55;;;;;;;22.48;66.47;100764.44;1634512;86;21613;-71
2022/06/27 03:02:11;;;;;;;3.65;3.45;;;;;;;22.83;65.19;100761.73;1606869;87;21614;-70
2022/06/27 03:04:56;;;;;;;3.33;3.12;;;;;;;23.25;63.63;100766.43;1663719;84;21057;-69
2022/06/27 03:07:23;;;;;;;4.17;3.87;;;;;;;23.63;61.76;100753.02;1673612;84;21123;-69
2022/06/27 03:09:49;;;;;;;3.67;3.58;;;;;;;23.96;60.68;100759.18;1677720;84;21089;-70
2022/06/27 03:12:16;;;;;;;3.83;3.62;;;;;;;24.28;59.28;100764.98;1681003;83;21038;-69
2022/06/27 03:14:42;;;;;;;3.70;3.55;;;;;;;24.54;58.09;100762.30;1640070;86;21094;-69
2022/06/27 03:17:09;;;;;;;3.20;3.10;;;;;;;24.74;57.55;100754.13;1633427;86;21677;-69
2022/06/27 03:22:15;;;;;;;3.20;2.87;;;;;;;24.99;56.27;100760.10;1798231;78;22634;-68
2022/06/27 03:24:41;;;;;;;3.22;3.00;;;;;;;25.02;56.03;100758.20;1730509;82;21517;-71
2022/06/27 03:27:10;;;;;;;5.25;2.33;;;;;;;25.10;56.07;100758.74;1669141;84;21051;-69
2022/06/27 03:29:37;;;;;;;3.62;2.98;;;;;;;25.22;55.49;100760.61;1669486;84;21068;-70
2022/06/27 03:32:06;;;;;;;3.50;2.15;;;;;;;25.13;55.34;100756.28;1692321;83;21028;-73
2022/06/27 03:34:33;;;;;;;2.50;2.40;;;;;;;24.95;55.84;100759.02;1687191;83;20993;-69
2022/06/27 03:37:07;;;;;;;3.05;2.87;;;;;;;24.88;56.54;100768.02;1675523;83;21040;-71
2022/06/27 03:39:35;;;;;;;5.67;3.00;;;;;;;25.05;56.01;100767.20;1668679;83;21117;-71
2022/06/27 03:42:02;;;;;;;3.27;2.60;;;;;;;25.27;55.30;100759.27;1680191;83;21519;-72
2022/06/27 03:44:29;;;;;;;2.92;2.72;;;;;;;25.16;55.29;100754.91;1682781;82;21075;-71
2022/06/27 03:46:55;;;;;;;2.75;2.65;;;;;;;25.08;56.12;100762.30;1677134;83;21091;-71
2022/06/27 03:52:13;;;;;;;4.30;3.35;;;;;;;25.08;55.22;100765.02;1679610;83;21008;-72
2022/06/27 03:54:39;;;;;;;4.25;3.15;;;;;;;24.83;56.38;100770.22;1661075;84;21024;-71
2022/06/27 03:57:05;;;;;;;3.33;3.02;;;;;;;24.54;57.17;100754.94;1686078;83;21006;-71
2022/06/27 03:59:33;;;;;;;2.67;2.58;;;;;;;24.25;58.60;100760.87;1686440;83;21140;-71
2022/06/27 04:02:00;;;;;;;3.10;2.92;;;;;;;24.02;58.76;100772.27;1693695;84;21105;-70
2022/06/27 04:04:29;;;;;;;4.12;3.75;;;;;;;23.95;59.61;100769.78;1686260;83;21117;-69
2022/06/27 04:06:55;;;;;;;4.65;3.55;;;;;;;23.91;59.45;100768.68;1684434;84;21568;-70
2022/06/27 04:09:21;;;;;;;3.12;3.02;;;;;;;23.94;59.91;100767.31;1668980;83;21050;-71
2022/06/27 04:11:47;;;;;;;3.08;2.90;;;;;;;24.15;59.50;100780.45;1689022;83;21087;-70
2022/06/27 04:14:15;;;;;;;5.12;3.00;;;;;;;24.28;58.50;100771.23;1672894;84;21029;-72
2022/06/27 04:16:43;;;;;;;4.17;3.83;;;;;;;24.31;58.66;100770.42;1679776;83;21248;-70
2022/06/27 04:19:21;;;;;;;4.15;3.80;;;;;;;24.34;58.73;100765.80;1680676;84;21068;-76
2022/06/27 04:21:56;;;;;;;3.22;3.12;;;;;;;24.26;58.94;100773.41;1672085;84;21114;-72
2022/06/27 04:24:42;;;;;;;3.65;3.35;;;;;;;24.04;59.58;100772.27;1709941;83;21042;-69
2022/06/27 04:27:09;;;;;;;7.53;4.22;;;;;;;24.02;59.75;100760.02;1713093;82;21058;-69
2022/06/27 04:29:35;;;;;;;3.33;3.12;;;;;;;24.05;59.40;100764.91;1716146;82;21070;-69
2022/06/27 04:32:04;;;;;;;4.67;3.27;;;;;;;23.99;59.83;100764.62;1671166;84;21085;-69
2022/06/27 04:34:30;;;;;;;3.45;3.05;;;;;;;23.95;59.92;100763.52;1643702;86;21074;-70
2022/06/27 04:36:57;;;;;;;6.35;3.60;;;;;;;23.78;59.62;100718.24;1631918;86;21066;-75
2022/06/27 04:39:24;;;;;;;4.78;4.00;;;;;;;24.38;58.56;100758.72;1617559;87;21597;-71
2022/06/27 04:41:52;;;;;;;5.10;3.67;;;;;;;24.81;57.30;100753.88;1612758;88;21162;-71
2022/06/27 04:44:19;;;;;;;4.08;3.55;;;;;;;25.11;56.49;100759.84;1636491;85;21370;-71
2022/06/27 04:46:49;;;;;;;3.98;3.47;;;;;;;25.50;56.06;100763.30;1717429;82;21096;-71
2022/06/27 04:49:19;;;;;;;3.12;2.75;;;;;;;25.70;54.68;100754.78;1716763;82;21085;-73
2022/06/27 04:51:49;;;;;;;2.35;2.15;;;;;;;25.79;54.23;100759.94;1712875;82;21010;-70
2022/06/27 04:54:17;;;;;;;3.08;2.87;;;;;;;25.78;53.45;100760.45;1702276;82;21050;-71
2022/06/27 04:56:45;;;;;;;2.50;2.30;;;;;;;25.86;53.13;100758.25;1717476;81;21389;-74
2022/06/27 04:59:13;;;;;;;3.90;2.12;;;;;;;25.88;52.60;100760.14;1672413;82;21160;-75
2022/06/27 05:01:41;;;;;;;3.55;2.40;;;;;;;25.98;52.73;100760.95;1702305;82;21650;-74
2022/06/27 05:04:08;;;;;;;4.72;2.33;;;;;;;26.34;51.65;100764.02;1709894;83;21073;-73
2022/06/27 05:06:37;;;;;;;2.75;2.55;;;;;;;26.52;51.15;100753.78;1703236;83;21609;-75
2022/06/27 05:09:05;;;;;;;4.10;1.62;;;;;;;26.67;50.63;100758.87;1712850;83;21662;-71
2022/06/27 05:11:33;;;;;;;4.50;1.62;;;;;;;26.77;50.40;100768.38;1707677;83;21544;-71
2022/06/27 05:13:59;;;;;;;1.77;1.70;;;;;;;26.83;50.14;100758.20;1692122;84;21558;-69
2022/06/27 05:16:38;;;;;;;2.10;1.98;;;;;;;26.66;50.44;100764.09;1694433;84;21094;-72
2022/06/27 05:19:05;;;;;;;2.47;2.10;;;;;;;26.59;50.60;100761.64;1701506;84;21062;-66
2022/06/27 05:21:31;;;;;;;2.20;2.10;;;;;;;26.73;50.70;100765.92;1665584;84;21083;-70
2022/06/27 05:23:57;;;;;;;2.50;2.33;;;;;;;26.75;50.53;100765.11;1692071;84;21145;-70
2022/06/27 05:26:24;;;;;;;2.02;2.00;;;;;;;26.87;50.50;100764.16;1689147;84;21169;-70
2022/06/27 05:28:52;;;;;;;3.33;2.17;;;;;;;27.13;50.25;100763.94;1690141;85;21955;-71
2022/06/27 05:31:18;;;;;;;2.42;1.87;;;;;;;27.55;49.03;100756.92;1646497;86;21297;-70
2022/06/27 05:33:46;;;;;;;1.82;1.72;;;;;;;27.87;48.24;100771.30;1635432;87;21118;-70
2022/06/27 05:36:12;;;;;;;1.77;1.67;;;;;;;28.28;46.74;100770.77;1692115;83;21534;-69
2022/06/27 05:38:39;;;;;;;1.50;1.40;;;;;;;28.41;46.14;100771.95;1691042;83;21054;-70
2022/06/27 05:41:07;;;;;;;4.20;2.00;;;;;;;28.38;46.57;100765.68;1702600;83;21007;-69
2022/06/27 05:43:33;;;;;;;2.65;1.77;;;;;;;28.38;46.74;100779.39;1702995;83;21085;-70
2022/06/27 05:46:02;;;;;;;4.55;1.90;;;;;;;28.50;46.65;100777.02;1707837;82;21038;-71
2022/06/27 05:48:30;;;;;;;1.35;1.25;;;;;;;28.63;46.08;100768.63;1669887;82;21272;-71
2022/06/27 05:51:08;;;;;;;3.98;1.72;;;;;;;28.78;45.73;100772.20;1690608;82;21049;-71
2022/06/27 05:53:36;;;;;;;1.95;1.52;;;;;;;29.03;45.03;100764.11;1723638;82;22183;-70
2022/06/27 05:56:04;;;;;;;3.37;2.45;;;;;;;29.07;44.28;100770.61;1709200;82;21118;-68
2022/06/27 05:58:31;;;;;;;4.00;1.77;;;;;;;29.06;44.61;100763.48;1691443;84;21038;-75
2022/06/27 06:00:58;;;;;;;1.57;1.37;;;;;;;29.10;44.72;100766.70;1700303;81;21573;-68
2022/06/27 06:03:25;;;;;;;1.90;1.80;;;;;;;29.36;44.69;100773.66;1744128;81;21006;-67
2022/06/27 06:05:54;;;;;;;1.70;1.12;;;;;;;29.55;43.93;100772.19;1739146;81;21022;-68
2022/06/27 06:08:21;;;;;;;3.02;1.40;;;;;;;29.74;42.86;100773.48;1698280;81;21014;-69
2022/06/27 06:10:49;;;;;;;2.52;1.55;;;;;;;29.84;42.92;100771.33;1728448;81;21583;-69
2022/06/27 06:13:15;;;;;;;1.40;1.30;;;;;;;29.85;42.65;100769.39;1652602;83;21106;-70
2022/06/27 06:15:42;;;;;;;3.17;1.02;;;;;;;29.65;42.88;100772.00;1617647;86;21094;-70
2022/06/27 06:18:09;;;;;;;3.05;1.57;;;;;;;29.46;43.73;100772.91;1677111;85;21677;-71
2022/06/27 06:20:36;;;;;;;1.50;1.50;;;;;;;29.19;43.95;100774.27;1650429;85;21043;-70
2022/06/27 06:23:02;;;;;;;1.90;1.80;;;;;;;28.96;44.64;100773.28;1703491;83;21046;-71
2022/06/27 06:25:30;;;;;;;1.32;1.22;;;;;;;28.92;45.06;100771.13;1695590;84;21065;-69
2022/06/27 06:28:02;;;;;;;2.05;1.95;;;;;;;29.01;45.48;100772.64;1689406;84;21074;-73
2022/06/27 06:30:30;;;;;;;2.65;1.60;;;;;;;29.19;44.99;100759.97;1663654;84;21058;-71
2022/06/27 06:33:04;;;;;;;7.83;1.80;;;;;;;29.39;44.21;100764.83;1693838;84;22424;-72
2022/06/27 06:35:34;;;;;;;;;;;;;;;29.39;44.30;100760.71;1695623;84;21109;-69
2022/06/27 06:38:02;;;;;;;3.22;0.98;;;;;;;29.53;44.02;100757.95;1695616;84;20138;-71
2022/06/27 06:40:32;;;;;;;3.12;1.87;;;;;;;29.65;43.57;100748.08;1695714;84;21019;-69
2022/06/27 06:43:01;;;;;;;2.98;1.45;;;;;;;29.96;43.32;100741.94;1695082;84;21164;-68
2022/06/27 06:45:43;;;;;;;3.62;1.37;;;;;;;30.30;41.99;100746.68;1693264;84;21637;-70
2022/06/27 06:48:17;;;;;;;2.00;1.32;;;;;;;30.42;41.82;100737.33;1685229;84;21050;-71
2022/06/27 06:50:42;;;;;;;2.42;1.67;;;;;;;30.43;41.32;100737.02;1683187;84;21262;-69
2022/06/27 06:53:16;;;;;;;3.08;1.37;;;;;;;30.34;41.60;100744.95;1681607;83;21124;-71
2022/06/27 06:55:42;;;;;;;1.47;1.37;;;;;;;30.30;41.57;100743.93;1682712;84;21058;-71
2022/06/27 06:58:09;;;;;;;1.98;0.90;;;;;;;30.30;41.03;100739.81;1694019;84;21070;-73
2022/06/27 07:00:38;;;;;;;2.67;0.88;;;;;;;30.30;41.55;100739.23;1693915;83;21028;-70
2022/06/27 07:03:03;;;;;;;2.35;0.90;;;;;;;30.21;41.07;100736.98;1710442;83;21087;-70
2022/06/27 07:05:31;;;;;;;1.22;0.93;;;;;;;30.19;41.34;100748.28;1696760;84;21560;-70
2022/06/27 07:07:58;;;;;;;3.80;1.45;;;;;;;30.34;41.60;100743.58;1704274;83;21090;-72
2022/06/27 07:10:25;;;;;;;1.70;1.70;;;;;;;30.59;41.35;100735.25;1701989;83;21035;-71
2022/06/27 07:12:52;;;;;;;3.47;2.05;;;;;;;30.65;41.24;100738.14;1697891;83;21114;-71
2022/06/27 07:15:18;;;;;;;2.47;1.27;;;;;;;30.66;41.83;100749.39;1701987;83;21557;-72
2022/06/27 07:17:52;;;;;;;2.35;1.90;;;;;;;30.78;41.30;100747.42;1710007;84;21014;-72
2022/06/27 07:20:19;;;;;;;1.87;1.62;;;;;;;30.79;41.40;100741.61;1706741;84;21161;-72
2022/06/27 07:22:48;;;;;;;3.05;2.62;;;;;;;30.89;41.59;100744.66;1700520;83;21010;-71
2022/06/27 07:25:15;;;;;;;2.10;1.17;;;;;;;31.08;41.04;100741.73;1660008;85;21102;-73
2022/06/27 07:27:42;;;;;;;1.50;1.25;;;;;;;31.07;40.43;100752.48;1683382;83;21085;-70
2022/06/27 07:30:11;;;;;;;1.75;1.60;;;;;;;30.99;40.40;100752.69;1692898;83;21045;-72
2022/06/27 07:32:40;;;;;;;4.65;1.87;;;;;;;30.78;40.93;100748.80;1692958;83;21054;-72
2022/06/27 07:35:11;;;;;;;4.45;1.72;;;;;;;30.66;41.33;100744.69;1659525;85;21097;-73
2022/06/27 07:37:48;;;;;;;2.05;1.90;;;;;;;30.70;41.50;100744.07;1658862;85;21055;-72
2022/06/27 07:40:20;;;;;;;2.33;1.77;;;;;;;30.82;41.21;100748.45;1694737;83;21134;-70
2022/06/27 07:42:49;;;;;;;1.70;1.15;;;;;;;30.94;40.94;100747.88;1696344;83;21091;-72
2022/06/27 07:45:15;;;;;;;1.40;1.30;;;;;;;30.91;40.02;100747.12;1693996;81;21042;-71
2022/06/27 07:47:44;;;;;;;1.95;1.10;;;;;;;30.72;40.46;100750.06;1692660;83;21049;-70
2022/06/27 07:50:11;;;;;;;1.62;1.17;;;;;;;30.57;40.70;100748.52;1696915;84;21136;-72
2022/06/27 07:55:24;;;;;;;1.70;1.10;;;;;;;30.65;40.81;100755.45;1695013;83;21042;-72
2022/06/27 07:57:54;;;;;;;2.47;1.00;;;;;;;30.71;40.29;100756.14;1701567;83;21141;-72
2022/06/27 08:00:20;;;;;;;0.88;0.78;;;;;;;30.57;40.47;100758.97;1706060;83;21095;-72
2022/06/27 08:02:46;;;;;;;2.33;0.55;;;;;;;30.53;40.03;100758.52;1704305;83;21254;-72
2022/06/27 08:05:12;;;;;;;2.27;0.60;;;;;;;30.46;37.34;100764.48;1709910;83;21641;-72
2022/06/27 08:07:39;;;;;;;2.95;0.53;;;;;;;30.44;37.64;100759.82;1702967;83;21114;-71
2022/06/27 08:10:07;;;;;;;4.10;0.78;;;;;;;30.43;37.79;100756.84;1700007;83;21090;-72
2022/06/27 08:12:35;;;;;;;2.72;0.78;;;;;;;30.46;37.53;100758.98;1694724;83;21088;-73
2022/06/27 08:15:03;;;;;;;3.37;1.12;;;;;;;30.49;37.72;100760.28;1709492;83;21554;-75
2022/06/27 08:17:29;;;;;;;2.75;1.00;;;;;;;30.39;38.50;100765.47;1708581;83;21050;-72
2022/06/27 08:19:55;;;;;;;2.30;1.25;;;;;;;30.33;38.46;100767.52;1707554;83;21042;-72
2022/06/27 08:22:24;;;;;;;4.87;1.12;;;;;;;30.36;38.49;100760.01;1710384;82;21076;-72
2022/06/27 08:24:51;;;;;;;1.52;0.65;;;;;;;30.31;38.58;100777.16;1715390;82;21105;-72
2022/06/27 08:27:18;;;;;;;0.95;0.55;;;;;;;30.22;38.23;100761.41;1707285;82;20986;-71
2022/06/27 08:29:44;;;;;;;3.65;0.90;;;;;;;30.12;38.23;100771.82;1703669;82;21168;-72
2022/06/27 08:32:10;;;;;;;1.40;0.50;;;;;;;30.03;38.49;100766.27;1715537;83;21117;-72
2022/06/27 08:34:37;;;;;;;1.25;0.75;;;;;;;29.99;38.79;100770.73;1698887;83;21569;-72
2022/06/27 08:37:04;;;;;;;5.97;1.02;;;;;;;29.92;38.72;100774.48;1676577;84;21053;-71
2022/06/27 08:39:31;;;;;;;22.90;1.45;;;;;;;29.86;39.34;100760.05;1666197;84;21154;-73
2022/06/27 08:41:58;;;;;;;1.60;0.78;;;;;;;29.86;39.90;100749.86;1693817;84;21118;-72
2022/06/27 08:44:28;;;;;;;1.87;0.93;;;;;;;29.82;39.24;100754.89;1683887;84;21124;-72
2022/06/27 08:46:55;;;;;;;1.92;0.80;;;;;;;29.78;39.67;100756.09;1682205;84;21069;-71
2022/06/27 08:49:22;;;;;;;2.25;1.00;;;;;;;29.76;39.05;100758.87;1676230;84;21045;-72
2022/06/27 08:51:48;;;;;;;0.70;0.70;;;;;;;29.73;39.78;100770.46;1682300;84;21703;-74
2022/06/27 08:54:15;;;;;;;6.05;0.90;;;;;;;29.63;39.25;100753.07;1681643;84;21077;-72
2022/06/27 08:56:42;;;;;;;3.37;0.95;;;;;;;29.60;39.82;100756.98;1698844;83;21055;-72
2022/06/27 08:59:08;;;;;;;3.62;0.80;;;;;;;29.57;39.71;100747.41;1702954;83;21916;-72
2022/06/27 09:01:35;;;;;;;1.62;0.98;;;;;;;29.58;39.61;100755.11;1698204;83;21034;-72
2022/06/27 09:04:06;;;;;;;2.62;1.00;;;;;;;29.60;40.07;100753.67;1707765;83;21121;-73
2022/06/27 09:06:47;;;;;;;2.02;1.15;;;;;;;29.65;40.65;100751.40;1700099;82;21023;-72
2022/06/27 09:09:16;;;;;;;6.37;0.98;;;;;;;29.63;40.59;100761.85;1701225;83;21050;-72
2022/06/27 09:11:46;;;;;;;4.03;1.05;;;;;;;29.68;40.14;100767.25;1690688;83;21105;-73
2022/06/27 09:14:33;;;;;;;2.83;0.70;;;;;;;29.69;40.46;100777.94;1675774;84;21089;-74
2022/06/27 09:17:04;;;;;;;2.37;0.62;;;;;;;29.73;40.43;100764.97;1657971;84;21014;-74
2022/06/27 09:19:56;;;;;;;3.12;1.30;;;;;;;29.75;40.33;100750.39;1677129;84;21014;-71
2022/06/27 09:22:28;;;;;;;1.25;1.15;;;;;;;29.70;39.42;100742.48;1632749;86;21619;-72
2022/06/27 09:25:13;;;;;;;2.15;0.95;;;;;;;29.61;40.01;100750.36;1654854;85;21162;-73
2022/06/27 09:27:43;;;;;;;3.50;1.05;;;;;;;29.59;40.29;100743.83;1628904;86;21118;-69
2022/06/27 09:30:23;;;;;;;2.77;0.80;;;;;;;29.59;40.36;100749.31;1639874;85;21072;-70
2022/06/27 09:32:54;;;;;;;6.47;0.95;;;;;;;29.57;40.18;100773.50;1635006;86;21564;-71
2022/06/27 09:35:31;;;;;;;0.90;0.55;;;;;;;29.48;40.37;100741.03;1611078;86;21142;-73
2022/06/27 09:38:04;;;;;;;1.75;0.78;;;;;;;29.40;40.34;100756.27;1660296;83;21188;-72
2022/06/27 09:40:34;;;;;;;1.53;0.87;;;;;;;29.38;40.66;100752.20;1700557;83;21074;-71
2022/06/27 09:43:01;;;;;;;1.25;0.70;;;;;;;29.42;40.54;100747.73;1699765;82;21061;-71
2022/06/27 09:45:29;;;;;;;0.98;0.85;;;;;;;29.43;40.73;100739.76;1697989;82;21141;-72
2022/06/27 09:47:59;;;;;;;2.30;1.05;;;;;;;29.41;40.01;100733.19;1683684;83;21570;-72
2022/06/27 09:50:33;;;;;;;6.28;0.98;;;;;;;29.41;39.51;100735.13;1690173;83;21050;-73
2022/06/27 09:53:00;;;;;;;3.08;0.95;;;;;;;29.44;39.85;100724.89;1702899;83;21113;-72
2022/06/27 09:55:28;;;;;;;2.27;0.95;;;;;;;29.48;40.13;100741.03;1687701;83;21923;-73
2022/06/27 09:57:56;;;;;;;1.40;0.70;;;;;;;29.59;39.99;100714.16;1696395;83;21018;-74
2022/06/27 10:00:24;;;;;;;2.45;0.90;;;;;;;29.71;39.36;100703.46;1696148;82;21604;-73
2022/06/27 10:02:51;;;;;;;1.92;0.90;;;;;;;29.80;38.89;100701.64;1699667;83;21053;-75
2022/06/27 10:05:22;;;;;;;2.25;0.65;;;;;;;29.88;38.55;100736.62;1694830;83;20982;-75
2022/06/27 10:08:04;;;;;;;5.47;1.00;;;;;;;29.94;37.98;100719.45;1691217;82;21045;-78
2022/06/27 10:11:09;;;;;;;1.40;0.75;;;;;;;29.97;38.34;100718.84;1681956;83;21039;-76
2022/06/27 10:13:39;;;;;;;0.70;0.70;;;;;;;29.99;38.01;100703.40;1699127;83;21043;-79
2022/06/27 10:16:13;;;;;;;2.67;1.20;;;;;;;30.00;38.07;100715.46;1698939;83;21122;-80
2022/06/27 10:19:06;;;;;;;2.90;0.90;;;;;;;30.00;38.00;100720.16;1701606;83;21113;-79
2022/06/27 10:21:42;;;;;;;2.47;0.90;;;;;;;29.97;38.65;100717.47;1695201;83;21085;-78
2022/06/27 10:24:25;;;;;;;;;;;;;;;29.91;38.72;100709.07;1663568;83;21045;-78
2022/06/27 10:26:54;;;;;;;2.27;0.75;;;;;;;29.85;38.29;100707.57;1646274;85;20149;-78
2022/06/27 10:29:42;;;;;;;1.75;0.70;;;;;;;29.79;38.33;100721.98;1640585;85;21135;-78
2022/06/27 10:32:29;;;;;;;0.60;0.60;;;;;;;29.82;38.02;100728.25;1633116;86;21065;-78
2022/06/27 10:35:00;;;;;;;4.03;1.07;;;;;;;29.83;37.80;100709.81;1633189;86;21113;-79
2022/06/27 10:37:37;;;;;;;1.57;0.50;;;;;;;29.85;37.71;100706.20;1621457;87;21185;-77
2022/06/27 10:40:24;;;;;;;0.50;0.50;;;;;;;29.91;37.01;100718.69;1658361;85;21025;-79
2022/06/27 10:42:54;;;;;;;2.67;0.62;;;;;;;29.97;36.59;100707.86;1673712;84;21181;-77
2022/06/27 10:45:29;;;;;;;2.17;0.70;;;;;;;29.99;36.88;100700.11;1673116;83;21117;-76
2022/06/27 10:48:03;;;;;;;6.83;0.73;;;;;;;30.00;36.80;100713.28;1642760;86;21013;-78
2022/06/27 10:50:42;;;;;;;1.85;0.60;;;;;;;30.00;36.80;100713.28;1667905;84;22051;-78
2022/06/27 10:53:23;;;;;;;0.33;0.33;;;;;;;29.98;35.94;100714.96;1666907;84;21093;-79
2022/06/27 10:55:49;;;;;;;3.02;0.62;;;;;;;29.98;34.82;100716.34;1684302;84;21068;-79
2022/06/27 10:58:29;;;;;;;2.00;0.40;;;;;;;29.99;34.34;100724.84;1681839;84;21061;-78
2022/06/27 11:01:18;;;;;;;3.15;0.40;;;;;;;30.01;33.75;100717.67;1676175;83;21051;-77
2022/06/27 11:03:46;;;;;;;0.45;0.40;;;;;;;29.98;33.32;100699.84;1690555;83;21595;-80
2022/06/27 11:06:15;;;;;;;1.62;0.40;;;;;;;30.00;33.27;100694.05;1691467;83;21055;-81
2022/06/27 11:08:46;;;;;;;0.30;0.30;;;;;;;30.05;33.27;100715.35;1693033;83;21174;-80
2022/06/27 11:11:18;;;;;;;0.72;0.40;;;;;;;30.13;31.60;100715.73;1636685;85;21113;-79
2022/06/27 11:13:53;;;;;;;0.93;0.53;;;;;;;30.15;31.37;100694.25;1720781;82;21149;-77
2022/06/27 11:16:25;;;;;;;2.15;0.25;;;;;;;30.17;30.83;100705.17;1720713;82;21019;-76
2022/06/27 11:19:02;;;;;;;0.40;0.40;;;;;;;30.19;30.69;100702.92;1716235;82;21120;-76
2022/06/27 11:21:36;;;;;;;2.92;0.62;;;;;;;30.20;30.57;100694.94;1710894;82;21070;-71
2022/06/27 11:24:10;;;;;;;0.40;0.20;;;;;;;30.24;30.45;100680.00;1690711;82;21748;-76
2022/06/27 11:26:47;;;;;;;3.37;0.65;;;;;;;30.34;30.39;100687.22;1685310;85;21014;-76
2022/06/27 11:32:13;;;;;;;0.90;0.40;;;;;;;30.55;30.23;100717.76;1680490;85;21716;-76
2022/06/27 11:34:49;;;;;;;1.42;0.20;;;;;;;30.61;30.07;100688.98;1693775;83;22133;-75
2022/06/27 11:37:22;;;;;;;0.90;0.25;;;;;;;30.62;30.12;100690.63;1697036;83;21113;-72
2022/06/27 11:40:08;;;;;;;0.45;0.37;;;;;;;30.60;30.26;100682.68;1706082;83;21042;-77
2022/06/27 11:42:36;;;;;;;0.57;0.57;;;;;;;30.61;30.51;100686.23;1704647;83;21102;-77
2022/06/27 11:45:13;;;;;;;0.40;0.30;;;;;;;30.63;30.69;100688.14;1676337;84;21101;-76
2022/06/27 11:47:45;;;;;;;0.62;0.30;;;;;;;30.70;30.88;100680.22;1692515;84;21062;-75
2022/06/27 11:50:18;;;;;;;0.53;0.53;;;;;;;30.81;30.80;100691.77;1680848;84;21113;-77